Hundvaag 1 weather for Aug 2000
Month no. 158
Obs.
Da.
Temp. Dew Point Precip. Wind
Speed
Wind gusts Cloud cover Press. Humidity Wind dir. Sunny OPT
01.08.2000 16,3   0,0     3 1016,0     1  
02.08.2000 19,0   0,2     4 1013,6     1  
03.08.2000 12,8   0,0     9 1013,6     1  
04.08.2000 14,2   0,0     0 1015,6        
05.08.2000 15,0   4,5     0 1017,3     1  
06.08.2000 14,8   2,7     0 1014,5     1  
07.08.2000 11,2   4,7     1 1016,0     1  
08.08.2000 10,8   0,6     1 1015,7     1  
09.08.2000 10,4   0,0     10 1016,8     1  
10.08.2000 13,3   0,1     0 1013,1        
11.08.2000 14,1   8,7     0 1012,1        
12.08.2000 12,7   0,2     0 1014,4     1  
13.08.2000 13,5   0,0     1 1016,0        
14.08.2000 15,4   0,0     0 1015,7        
15.08.2000 14,6   40,1     0 1013,6        
16.08.2000 11,0   3,5     2 1013,5     1  
17.08.2000 11,6   5,5     3 1011,7     1  
18.08.2000 11,4   17,3     1 1011,9     1  
19.08.2000 14,9   1,5     8 1013,3     1  
20.08.2000 14,2   23,3     0 1009,1     1  
21.08.2000 11,8   0,5     0 1012,3     1  
22.08.2000 11,7   0,0     8 1016,0     1  
23.08.2000 10,9   2,0     7 1018,8     1  
24.08.2000 10,8   12,7     0 1016,0     1  
25.08.2000 12,9   16,0     7 1018,4     1  
26.08.2000 11,7   0,0     9 1018,0     1  
27.08.2000 15,2   0,0     8 1014,7     1  
28.08.2000 14,3   12,5     0 1015,2        
29.08.2000 13,6   17,7     0 1015,5     1  
30.08.2000 13,2   12,4     0 1014,8        
31.08.2000 12,2   0,2     0 1014,3        
Avrg/Sum 13,2   186,9     2,6 1014,8     22